sensor_id;sensor_type;location;lat;lon;timestamp;temperature;humidity
67050;DHT22;53955;52.442;13.284;2023-07-31T00:01:15;19.50;72.10
67050;DHT22;53955;52.442;13.284;2023-07-31T00:03:42;19.30;71.70
67050;DHT22;53955;52.442;13.284;2023-07-31T00:06:08;19.30;72.00
67050;DHT22;53955;52.442;13.284;2023-07-31T00:08:35;19.40;72.20
67050;DHT22;53955;52.442;13.284;2023-07-31T00:11:02;19.50;73.00
67050;DHT22;53955;52.442;13.284;2023-07-31T00:13:28;19.40;72.60
67050;DHT22;53955;52.442;13.284;2023-07-31T00:15:56;19.40;72.90
67050;DHT22;53955;52.442;13.284;2023-07-31T00:18:23;19.50;73.80
67050;DHT22;53955;52.442;13.284;2023-07-31T00:20:49;19.40;73.80
67050;DHT22;53955;52.442;13.284;2023-07-31T00:23:16;19.40;73.50
67050;DHT22;53955;52.442;13.284;2023-07-31T00:25:42;19.50;73.80
67050;DHT22;53955;52.442;13.284;2023-07-31T00:28:10;19.50;73.30
67050;DHT22;53955;52.442;13.284;2023-07-31T00:30:36;19.40;73.80
67050;DHT22;53955;52.442;13.284;2023-07-31T00:33:04;19.40;74.20
67050;DHT22;53955;52.442;13.284;2023-07-31T00:35:31;19.50;73.40
67050;DHT22;53955;52.442;13.284;2023-07-31T00:37:58;19.50;73.90
67050;DHT22;53955;52.442;13.284;2023-07-31T00:40:25;19.50;74.30
67050;DHT22;53955;52.442;13.284;2023-07-31T00:42:50;19.50;73.90
67050;DHT22;53955;52.442;13.284;2023-07-31T00:45:17;19.50;74.00
67050;DHT22;53955;52.442;13.284;2023-07-31T00:47:44;19.40;74.00
67050;DHT22;53955;52.442;13.284;2023-07-31T00:50:12;19.40;74.00
67050;DHT22;53955;52.442;13.284;2023-07-31T00:52:39;19.40;73.90
67050;DHT22;53955;52.442;13.284;2023-07-31T00:55:07;19.40;73.80
67050;DHT22;53955;52.442;13.284;2023-07-31T00:57:34;19.40;74.30
67050;DHT22;53955;52.442;13.284;2023-07-31T01:00:03;19.50;73.50
67050;DHT22;53955;52.442;13.284;2023-07-31T01:02:30;19.60;73.10
67050;DHT22;53955;52.442;13.284;2023-07-31T01:04:56;19.50;72.50
67050;DHT22;53955;52.442;13.284;2023-07-31T01:07:33;19.60;72.50
67050;DHT22;53955;52.442;13.284;2023-07-31T01:10:07;19.60;71.70
67050;DHT22;53955;52.442;13.284;2023-07-31T01:12:34;19.60;73.10
67050;DHT22;53955;52.442;13.284;2023-07-31T01:15:03;19.40;74.00
67050;DHT22;53955;52.442;13.284;2023-07-31T01:17:30;19.40;74.40
67050;DHT22;53955;52.442;13.284;2023-07-31T01:20:04;19.40;74.10
67050;DHT22;53955;52.442;13.284;2023-07-31T01:22:49;19.40;74.60
67050;DHT22;53955;52.442;13.284;2023-07-31T01:25:34;19.40;74.60
67050;DHT22;53955;52.442;13.284;2023-07-31T01:28:10;19.50;74.70
67050;DHT22;53955;52.442;13.284;2023-07-31T01:30:41;19.50;74.70
67050;DHT22;53955;52.442;13.284;2023-07-31T01:33:09;19.40;74.00
67050;DHT22;53955;52.442;13.284;2023-07-31T01:35:37;19.50;74.40
67050;DHT22;53955;52.442;13.284;2023-07-31T01:38:05;19.40;74.20
67050;DHT22;53955;52.442;13.284;2023-07-31T01:40:31;19.30;73.70
67050;DHT22;53955;52.442;13.284;2023-07-31T01:42:58;19.40;73.90
67050;DHT22;53955;52.442;13.284;2023-07-31T01:45:26;19.30;74.60
67050;DHT22;53955;52.442;13.284;2023-07-31T01:47:52;19.30;74.70
67050;DHT22;53955;52.442;13.284;2023-07-31T01:50:19;19.30;75.10
67050;DHT22;53955;52.442;13.284;2023-07-31T01:52:46;19.30;75.40
67050;DHT22;53955;52.442;13.284;2023-07-31T01:55:12;19.30;75.30
67050;DHT22;53955;52.442;13.284;2023-07-31T01:57:39;19.40;75.50
67050;DHT22;53955;52.442;13.284;2023-07-31T02:00:06;19.40;75.50
67050;DHT22;53955;52.442;13.284;2023-07-31T02:02:34;19.40;75.60
67050;DHT22;53955;52.442;13.284;2023-07-31T02:05:01;19.40;75.30
67050;DHT22;53955;52.442;13.284;2023-07-31T02:07:27;19.40;75.70
67050;DHT22;53955;52.442;13.284;2023-07-31T02:09:54;19.30;75.50
67050;DHT22;53955;52.442;13.284;2023-07-31T02:12:21;19.40;75.00
67050;DHT22;53955;52.442;13.284;2023-07-31T02:14:47;19.30;75.30
67050;DHT22;53955;52.442;13.284;2023-07-31T02:17:14;19.30;75.50
67050;DHT22;53955;52.442;13.284;2023-07-31T02:19:42;19.30;76.20
67050;DHT22;53955;52.442;13.284;2023-07-31T02:22:08;19.30;75.80
67050;DHT22;53955;52.442;13.284;2023-07-31T02:24:35;19.50;75.00
67050;DHT22;53955;52.442;13.284;2023-07-31T02:27:01;19.40;75.20
67050;DHT22;53955;52.442;13.284;2023-07-31T02:29:28;19.40;74.10
67050;DHT22;53955;52.442;13.284;2023-07-31T02:31:55;19.60;73.40
67050;DHT22;53955;52.442;13.284;2023-07-31T02:34:21;19.60;72.80
67050;DHT22;53955;52.442;13.284;2023-07-31T02:36:49;19.50;73.20
67050;DHT22;53955;52.442;13.284;2023-07-31T02:39:16;19.50;73.40
67050;DHT22;53955;52.442;13.284;2023-07-31T02:41:42;19.50;74.10
67050;DHT22;53955;52.442;13.284;2023-07-31T02:44:09;19.50;73.60
67050;DHT22;53955;52.442;13.284;2023-07-31T02:46:35;19.40;74.60
67050;DHT22;53955;52.442;13.284;2023-07-31T02:49:02;19.50;74.90
67050;DHT22;53955;52.442;13.284;2023-07-31T02:51:28;19.50;73.90
67050;DHT22;53955;52.442;13.284;2023-07-31T02:53:56;19.50;74.40
67050;DHT22;53955;52.442;13.284;2023-07-31T02:56:23;19.50;75.00
67050;DHT22;53955;52.442;13.284;2023-07-31T02:58:49;19.50;75.10
67050;DHT22;53955;52.442;13.284;2023-07-31T03:01:16;19.30;74.90
67050;DHT22;53955;52.442;13.284;2023-07-31T03:03:42;19.30;75.00
67050;DHT22;53955;52.442;13.284;2023-07-31T03:06:09;19.50;74.60
67050;DHT22;53955;52.442;13.284;2023-07-31T03:08:36;19.50;75.00
67050;DHT22;53955;52.442;13.284;2023-07-31T03:11:03;19.40;75.20
67050;DHT22;53955;52.442;13.284;2023-07-31T03:13:30;19.40;75.10
67050;DHT22;53955;52.442;13.284;2023-07-31T03:15:56;19.40;74.90
67050;DHT22;53955;52.442;13.284;2023-07-31T03:18:23;19.40;74.30
67050;DHT22;53955;52.442;13.284;2023-07-31T03:20:50;19.40;74.60
67050;DHT22;53955;52.442;13.284;2023-07-31T03:23:16;19.40;75.10
67050;DHT22;53955;52.442;13.284;2023-07-31T03:25:55;19.40;75.50
67050;DHT22;53955;52.442;13.284;2023-07-31T03:28:24;19.60;75.40
67050;DHT22;53955;52.442;13.284;2023-07-31T03:30:51;19.80;75.00
67050;DHT22;53955;52.442;13.284;2023-07-31T03:33:17;20.10;73.40
67050;DHT22;53955;52.442;13.284;2023-07-31T03:35:44;20.10;73.60
67050;DHT22;53955;52.442;13.284;2023-07-31T03:38:10;20.20;73.40
67050;DHT22;53955;52.442;13.284;2023-07-31T03:40:37;20.30;72.30
67050;DHT22;53955;52.442;13.284;2023-07-31T03:43:04;20.00;73.50
67050;DHT22;53955;52.442;13.284;2023-07-31T03:45:32;20.00;73.90
67050;DHT22;53955;52.442;13.284;2023-07-31T03:47:59;19.80;74.30
67050;DHT22;53955;52.442;13.284;2023-07-31T03:50:26;19.70;74.80
67050;DHT22;53955;52.442;13.284;2023-07-31T03:52:52;19.70;74.20
67050;DHT22;53955;52.442;13.284;2023-07-31T03:55:19;19.70;74.40
67050;DHT22;53955;52.442;13.284;2023-07-31T03:57:47;19.70;74.70
67050;DHT22;53955;52.442;13.284;2023-07-31T04:00:13;19.60;74.90
67050;DHT22;53955;52.442;13.284;2023-07-31T04:02:41;19.60;75.00
67050;DHT22;53955;52.442;13.284;2023-07-31T04:05:08;19.50;75.20
67050;DHT22;53955;52.442;13.284;2023-07-31T04:07:36;19.50;75.70
67050;DHT22;53955;52.442;13.284;2023-07-31T04:10:03;19.50;75.00
67050;DHT22;53955;52.442;13.284;2023-07-31T04:12:30;19.60;75.10
67050;DHT22;53955;52.442;13.284;2023-07-31T04:14:56;19.50;75.20
67050;DHT22;53955;52.442;13.284;2023-07-31T04:17:23;19.60;75.20
67050;DHT22;53955;52.442;13.284;2023-07-31T04:19:51;19.50;75.30
67050;DHT22;53955;52.442;13.284;2023-07-31T04:22:17;19.50;76.10
67050;DHT22;53955;52.442;13.284;2023-07-31T04:24:44;19.50;75.90
67050;DHT22;53955;52.442;13.284;2023-07-31T04:27:10;19.60;75.60
67050;DHT22;53955;52.442;13.284;2023-07-31T04:29:37;19.40;76.20
67050;DHT22;53955;52.442;13.284;2023-07-31T04:32:05;19.50;76.20
67050;DHT22;53955;52.442;13.284;2023-07-31T04:34:32;19.40;76.20
67050;DHT22;53955;52.442;13.284;2023-07-31T04:37:00;19.40;75.80
67050;DHT22;53955;52.442;13.284;2023-07-31T04:39:26;19.50;76.10
67050;DHT22;53955;52.442;13.284;2023-07-31T04:41:53;19.50;76.40
67050;DHT22;53955;52.442;13.284;2023-07-31T04:44:19;19.50;76.60
67050;DHT22;53955;52.442;13.284;2023-07-31T04:46:46;19.50;76.70
67050;DHT22;53955;52.442;13.284;2023-07-31T04:49:13;19.60;76.00
67050;DHT22;53955;52.442;13.284;2023-07-31T04:51:39;19.50;76.20
67050;DHT22;53955;52.442;13.284;2023-07-31T04:54:07;19.60;75.90
67050;DHT22;53955;52.442;13.284;2023-07-31T04:56:34;19.50;76.40
67050;DHT22;53955;52.442;13.284;2023-07-31T04:59:00;19.50;76.10
67050;DHT22;53955;52.442;13.284;2023-07-31T05:01:27;19.60;76.40
67050;DHT22;53955;52.442;13.284;2023-07-31T05:03:54;19.60;76.50
67050;DHT22;53955;52.442;13.284;2023-07-31T05:06:21;19.50;77.00
67050;DHT22;53955;52.442;13.284;2023-07-31T05:08:47;19.50;77.30
67050;DHT22;53955;52.442;13.284;2023-07-31T05:11:15;19.50;77.10
67050;DHT22;53955;52.442;13.284;2023-07-31T05:13:42;19.70;75.90
67050;DHT22;53955;52.442;13.284;2023-07-31T05:16:08;19.80;76.70
67050;DHT22;53955;52.442;13.284;2023-07-31T05:18:35;19.80;76.60
67050;DHT22;53955;52.442;13.284;2023-07-31T05:21:01;19.90;75.70
67050;DHT22;53955;52.442;13.284;2023-07-31T05:23:28;19.90;75.60
67050;DHT22;53955;52.442;13.284;2023-07-31T05:26:02;19.90;75.20
67050;DHT22;53955;52.442;13.284;2023-07-31T05:28:30;20.00;75.20
67050;DHT22;53955;52.442;13.284;2023-07-31T05:30:59;20.00;75.20
67050;DHT22;53955;52.442;13.284;2023-07-31T05:33:26;20.00;75.20
67050;DHT22;53955;52.442;13.284;2023-07-31T05:35:52;20.10;75.00
67050;DHT22;53955;52.442;13.284;2023-07-31T05:38:19;20.00;74.80
67050;DHT22;53955;52.442;13.284;2023-07-31T05:40:46;20.00;75.20
67050;DHT22;53955;52.442;13.284;2023-07-31T05:43:13;20.10;74.60
67050;DHT22;53955;52.442;13.284;2023-07-31T05:45:42;20.10;73.90
67050;DHT22;53955;52.442;13.284;2023-07-31T05:48:08;20.00;74.90
67050;DHT22;53955;52.442;13.284;2023-07-31T05:50:35;20.00;74.50
67050;DHT22;53955;52.442;13.284;2023-07-31T05:53:02;20.10;74.70
67050;DHT22;53955;52.442;13.284;2023-07-31T05:55:29;20.00;75.10
67050;DHT22;53955;52.442;13.284;2023-07-31T05:57:55;20.10;75.20
67050;DHT22;53955;52.442;13.284;2023-07-31T06:00:22;20.20;75.00
67050;DHT22;53955;52.442;13.284;2023-07-31T06:02:50;20.10;74.40
67050;DHT22;53955;52.442;13.284;2023-07-31T06:05:16;20.00;74.90
67050;DHT22;53955;52.442;13.284;2023-07-31T06:07:43;20.00;75.20
67050;DHT22;53955;52.442;13.284;2023-07-31T06:10:10;19.90;76.00
67050;DHT22;53955;52.442;13.284;2023-07-31T06:12:36;20.00;75.70
67050;DHT22;53955;52.442;13.284;2023-07-31T06:15:04;20.00;75.80
67050;DHT22;53955;52.442;13.284;2023-07-31T06:17:31;20.10;75.70
67050;DHT22;53955;52.442;13.284;2023-07-31T06:19:59;20.10;75.30
67050;DHT22;53955;52.442;13.284;2023-07-31T06:22:25;20.20;75.40
67050;DHT22;53955;52.442;13.284;2023-07-31T06:24:52;20.20;75.80
67050;DHT22;53955;52.442;13.284;2023-07-31T06:27:18;20.30;75.70
67050;DHT22;53955;52.442;13.284;2023-07-31T06:29:45;20.30;75.20
67050;DHT22;53955;52.442;13.284;2023-07-31T06:32:11;20.30;75.50
67050;DHT22;53955;52.442;13.284;2023-07-31T06:34:38;20.30;75.50
67050;DHT22;53955;52.442;13.284;2023-07-31T06:37:06;20.30;75.50
67050;DHT22;53955;52.442;13.284;2023-07-31T06:39:33;20.40;75.50
67050;DHT22;53955;52.442;13.284;2023-07-31T06:41:59;20.40;75.50
67050;DHT22;53955;52.442;13.284;2023-07-31T06:44:26;20.40;75.30
67050;DHT22;53955;52.442;13.284;2023-07-31T06:46:52;20.40;75.00
67050;DHT22;53955;52.442;13.284;2023-07-31T06:49:19;20.40;74.90
67050;DHT22;53955;52.442;13.284;2023-07-31T06:51:45;20.40;74.50
67050;DHT22;53955;52.442;13.284;2023-07-31T06:54:13;20.30;75.00
67050;DHT22;53955;52.442;13.284;2023-07-31T06:56:40;20.20;75.70
67050;DHT22;53955;52.442;13.284;2023-07-31T06:59:06;20.20;75.90
67050;DHT22;53955;52.442;13.284;2023-07-31T07:01:33;20.30;76.30
67050;DHT22;53955;52.442;13.284;2023-07-31T07:03:59;20.20;76.50
67050;DHT22;53955;52.442;13.284;2023-07-31T07:06:26;20.20;76.30
67050;DHT22;53955;52.442;13.284;2023-07-31T07:08:53;20.20;75.70
67050;DHT22;53955;52.442;13.284;2023-07-31T07:11:21;20.20;76.60
67050;DHT22;53955;52.442;13.284;2023-07-31T07:13:47;20.20;76.30
67050;DHT22;53955;52.442;13.284;2023-07-31T07:16:14;20.10;76.70
67050;DHT22;53955;52.442;13.284;2023-07-31T07:18:41;20.10;76.40
67050;DHT22;53955;52.442;13.284;2023-07-31T07:21:07;20.20;76.90
67050;DHT22;53955;52.442;13.284;2023-07-31T07:23:34;20.20;76.60
67050;DHT22;53955;52.442;13.284;2023-07-31T07:26:01;20.20;76.10
67050;DHT22;53955;52.442;13.284;2023-07-31T07:28:29;20.30;76.50
67050;DHT22;53955;52.442;13.284;2023-07-31T07:30:55;20.30;75.90
67050;DHT22;53955;52.442;13.284;2023-07-31T07:33:22;20.50;76.10
67050;DHT22;53955;52.442;13.284;2023-07-31T07:35:49;20.40;76.20
67050;DHT22;53955;52.442;13.284;2023-07-31T07:38:16;20.40;76.70
67050;DHT22;53955;52.442;13.284;2023-07-31T07:40:44;20.50;76.60
67050;DHT22;53955;52.442;13.284;2023-07-31T07:43:12;20.50;76.40
67050;DHT22;53955;52.442;13.284;2023-07-31T07:45:40;20.60;76.50
67050;DHT22;53955;52.442;13.284;2023-07-31T07:48:06;20.50;76.30
67050;DHT22;53955;52.442;13.284;2023-07-31T07:50:33;20.70;76.40
67050;DHT22;53955;52.442;13.284;2023-07-31T07:52:59;20.70;76.60
67050;DHT22;53955;52.442;13.284;2023-07-31T07:55:26;20.70;76.80
67050;DHT22;53955;52.442;13.284;2023-07-31T07:57:53;20.60;76.20
67050;DHT22;53955;52.442;13.284;2023-07-31T08:00:20;20.50;77.30
67050;DHT22;53955;52.442;13.284;2023-07-31T08:02:47;20.50;76.90
67050;DHT22;53955;52.442;13.284;2023-07-31T08:05:14;20.40;77.20
67050;DHT22;53955;52.442;13.284;2023-07-31T08:07:42;20.40;77.30
67050;DHT22;53955;52.442;13.284;2023-07-31T08:10:09;20.40;77.70
67050;DHT22;53955;52.442;13.284;2023-07-31T08:12:36;20.40;77.70
67050;DHT22;53955;52.442;13.284;2023-07-31T08:15:03;20.50;78.60
67050;DHT22;53955;52.442;13.284;2023-07-31T08:17:30;20.40;77.80
67050;DHT22;53955;52.442;13.284;2023-07-31T08:19:58;20.40;77.80
67050;DHT22;53955;52.442;13.284;2023-07-31T08:22:24;20.40;77.70
67050;DHT22;53955;52.442;13.284;2023-07-31T08:24:51;20.40;78.20
67050;DHT22;53955;52.442;13.284;2023-07-31T08:27:17;20.30;77.80
67050;DHT22;53955;52.442;13.284;2023-07-31T08:29:44;20.20;78.50
67050;DHT22;53955;52.442;13.284;2023-07-31T08:32:11;20.40;78.90
67050;DHT22;53955;52.442;13.284;2023-07-31T08:34:37;20.60;79.10
67050;DHT22;53955;52.442;13.284;2023-07-31T08:37:05;20.80;77.90
67050;DHT22;53955;52.442;13.284;2023-07-31T08:39:32;20.80;78.00
67050;DHT22;53955;52.442;13.284;2023-07-31T08:41:58;20.90;76.60
67050;DHT22;53955;52.442;13.284;2023-07-31T08:44:26;20.90;75.70
67050;DHT22;53955;52.442;13.284;2023-07-31T08:46:52;20.90;76.40
67050;DHT22;53955;52.442;13.284;2023-07-31T08:49:20;20.90;76.00
67050;DHT22;53955;52.442;13.284;2023-07-31T08:51:50;20.90;77.60
67050;DHT22;53955;52.442;13.284;2023-07-31T08:54:18;20.90;76.20
67050;DHT22;53955;52.442;13.284;2023-07-31T08:56:44;20.80;77.50
67050;DHT22;53955;52.442;13.284;2023-07-31T08:59:11;20.80;77.90
67050;DHT22;53955;52.442;13.284;2023-07-31T09:01:43;20.90;76.80
67050;DHT22;53955;52.442;13.284;2023-07-31T09:04:16;21.00;76.50
67050;DHT22;53955;52.442;13.284;2023-07-31T09:06:44;21.00;75.60
67050;DHT22;53955;52.442;13.284;2023-07-31T09:09:12;21.10;75.20
67050;DHT22;53955;52.442;13.284;2023-07-31T09:11:40;21.10;75.20
67050;DHT22;53955;52.442;13.284;2023-07-31T09:14:08;21.20;75.40
67050;DHT22;53955;52.442;13.284;2023-07-31T09:16:35;21.30;75.80
67050;DHT22;53955;52.442;13.284;2023-07-31T09:19:02;21.30;75.40
67050;DHT22;53955;52.442;13.284;2023-07-31T09:21:30;21.20;75.90
67050;DHT22;53955;52.442;13.284;2023-07-31T09:23:57;21.20;76.10
67050;DHT22;53955;52.442;13.284;2023-07-31T09:26:31;21.10;75.50
67050;DHT22;53955;52.442;13.284;2023-07-31T09:29:00;21.00;75.40
67050;DHT22;53955;52.442;13.284;2023-07-31T09:31:38;20.90;75.40
67050;DHT22;53955;52.442;13.284;2023-07-31T09:34:06;20.90;75.40
67050;DHT22;53955;52.442;13.284;2023-07-31T09:36:32;21.00;75.60
67050;DHT22;53955;52.442;13.284;2023-07-31T09:39:02;20.90;75.30
67050;DHT22;53955;52.442;13.284;2023-07-31T09:41:29;20.90;75.40
67050;DHT22;53955;52.442;13.284;2023-07-31T09:43:56;20.80;76.70
67050;DHT22;53955;52.442;13.284;2023-07-31T09:46:27;20.80;77.60
67050;DHT22;53955;52.442;13.284;2023-07-31T09:49:06;20.80;76.90
67050;DHT22;53955;52.442;13.284;2023-07-31T09:51:34;20.70;77.10
67050;DHT22;53955;52.442;13.284;2023-07-31T09:54:07;20.80;76.90
67050;DHT22;53955;52.442;13.284;2023-07-31T09:56:35;20.60;77.60
67050;DHT22;53955;52.442;13.284;2023-07-31T09:59:04;20.60;77.90
67050;DHT22;53955;52.442;13.284;2023-07-31T10:01:32;20.60;77.60
67050;DHT22;53955;52.442;13.284;2023-07-31T10:04:00;20.70;77.90
67050;DHT22;53955;52.442;13.284;2023-07-31T10:06:27;20.80;77.90
67050;DHT22;53955;52.442;13.284;2023-07-31T10:08:54;20.80;77.80
67050;DHT22;53955;52.442;13.284;2023-07-31T10:11:22;20.90;76.70
67050;DHT22;53955;52.442;13.284;2023-07-31T10:13:51;20.90;77.00
67050;DHT22;53955;52.442;13.284;2023-07-31T10:16:18;21.00;76.70
67050;DHT22;53955;52.442;13.284;2023-07-31T10:18:47;21.00;76.70
67050;DHT22;53955;52.442;13.284;2023-07-31T10:21:15;21.00;77.00
67050;DHT22;53955;52.442;13.284;2023-07-31T10:23:43;20.90;76.70
67050;DHT22;53955;52.442;13.284;2023-07-31T10:26:11;21.00;76.90
67050;DHT22;53955;52.442;13.284;2023-07-31T10:28:39;21.20;77.20
67050;DHT22;53955;52.442;13.284;2023-07-31T10:31:06;21.20;76.20
67050;DHT22;53955;52.442;13.284;2023-07-31T10:33:34;21.30;76.10
67050;DHT22;53955;52.442;13.284;2023-07-31T10:36:16;21.30;76.20
67050;DHT22;53955;52.442;13.284;2023-07-31T10:38:43;21.50;76.30
67050;DHT22;53955;52.442;13.284;2023-07-31T10:41:10;21.90;75.60
67050;DHT22;53955;52.442;13.284;2023-07-31T10:43:37;22.40;74.40
67050;DHT22;53955;52.442;13.284;2023-07-31T10:46:06;22.80;73.70
67050;DHT22;53955;52.442;13.284;2023-07-31T10:48:34;23.10;72.50
67050;DHT22;53955;52.442;13.284;2023-07-31T10:51:07;23.30;71.60
67050;DHT22;53955;52.442;13.284;2023-07-31T10:53:36;23.50;70.60
67050;DHT22;53955;52.442;13.284;2023-07-31T10:56:04;23.50;70.60
67050;DHT22;53955;52.442;13.284;2023-07-31T10:58:32;23.70;66.90
67050;DHT22;53955;52.442;13.284;2023-07-31T11:01:00;23.80;67.40
67050;DHT22;53955;52.442;13.284;2023-07-31T11:03:41;23.90;63.50
67050;DHT22;53955;52.442;13.284;2023-07-31T11:06:08;23.70;64.40
67050;DHT22;53955;52.442;13.284;2023-07-31T11:08:41;23.70;64.40
67050;DHT22;53955;52.442;13.284;2023-07-31T11:11:10;23.60;63.90
67050;DHT22;53955;52.442;13.284;2023-07-31T11:13:41;23.40;66.30
67050;DHT22;53955;52.442;13.284;2023-07-31T11:16:09;23.30;67.20
67050;DHT22;53955;52.442;13.284;2023-07-31T11:18:35;23.30;67.10
67050;DHT22;53955;52.442;13.284;2023-07-31T11:21:04;23.20;65.60
67050;DHT22;53955;52.442;13.284;2023-07-31T11:23:31;23.20;65.10
67050;DHT22;53955;52.442;13.284;2023-07-31T11:26:00;23.20;63.70
67050;DHT22;53955;52.442;13.284;2023-07-31T11:28:31;23.10;62.50
67050;DHT22;53955;52.442;13.284;2023-07-31T11:30:58;23.30;63.50
67050;DHT22;53955;52.442;13.284;2023-07-31T11:33:25;23.30;64.80
67050;DHT22;53955;52.442;13.284;2023-07-31T11:35:52;23.30;62.50
67050;DHT22;53955;52.442;13.284;2023-07-31T11:38:22;23.30;64.60
67050;DHT22;53955;52.442;13.284;2023-07-31T11:40:50;23.30;61.10
67050;DHT22;53955;52.442;13.284;2023-07-31T11:43:18;23.20;62.00
67050;DHT22;53955;52.442;13.284;2023-07-31T11:45:47;23.10;61.80
67050;DHT22;53955;52.442;13.284;2023-07-31T11:48:19;23.00;61.90
67050;DHT22;53955;52.442;13.284;2023-07-31T11:50:46;23.00;63.20
67050;DHT22;53955;52.442;13.284;2023-07-31T11:53:15;23.00;63.60
67050;DHT22;53955;52.442;13.284;2023-07-31T11:55:42;22.80;63.20
67050;DHT22;53955;52.442;13.284;2023-07-31T11:58:09;22.80;63.80
67050;DHT22;53955;52.442;13.284;2023-07-31T12:00:38;22.70;65.00
67050;DHT22;53955;52.442;13.284;2023-07-31T12:03:04;22.70;64.80
67050;DHT22;53955;52.442;13.284;2023-07-31T12:05:31;22.80;64.60
67050;DHT22;53955;52.442;13.284;2023-07-31T12:07:58;22.80;64.90
67050;DHT22;53955;52.442;13.284;2023-07-31T12:10:26;22.80;63.60
67050;DHT22;53955;52.442;13.284;2023-07-31T12:13:04;22.80;64.30
67050;DHT22;53955;52.442;13.284;2023-07-31T12:15:39;22.80;63.30
67050;DHT22;53955;52.442;13.284;2023-07-31T12:18:08;23.00;64.70
67050;DHT22;53955;52.442;13.284;2023-07-31T12:20:35;23.00;62.20
67050;DHT22;53955;52.442;13.284;2023-07-31T12:23:02;22.90;61.80
67050;DHT22;53955;52.442;13.284;2023-07-31T12:25:32;23.00;61.10
67050;DHT22;53955;52.442;13.284;2023-07-31T12:28:04;23.00;61.50
67050;DHT22;53955;52.442;13.284;2023-07-31T12:30:33;23.00;60.60
67050;DHT22;53955;52.442;13.284;2023-07-31T12:33:05;22.90;61.70
67050;DHT22;53955;52.442;13.284;2023-07-31T12:35:37;23.00;61.80
67050;DHT22;53955;52.442;13.284;2023-07-31T12:38:04;23.10;61.80
67050;DHT22;53955;52.442;13.284;2023-07-31T12:40:30;23.10;63.50
67050;DHT22;53955;52.442;13.284;2023-07-31T12:42:57;23.10;61.40
67050;DHT22;53955;52.442;13.284;2023-07-31T12:45:24;23.30;62.00
67050;DHT22;53955;52.442;13.284;2023-07-31T12:47:50;23.30;60.80
67050;DHT22;53955;52.442;13.284;2023-07-31T12:50:18;23.40;60.10
67050;DHT22;53955;52.442;13.284;2023-07-31T12:52:45;23.60;60.50
67050;DHT22;53955;52.442;13.284;2023-07-31T12:55:11;23.50;58.60
67050;DHT22;53955;52.442;13.284;2023-07-31T12:57:39;23.50;60.30
67050;DHT22;53955;52.442;13.284;2023-07-31T13:00:07;23.40;59.60
67050;DHT22;53955;52.442;13.284;2023-07-31T13:02:34;23.50;58.50
67050;DHT22;53955;52.442;13.284;2023-07-31T13:05:01;23.50;58.60
67050;DHT22;53955;52.442;13.284;2023-07-31T13:07:28;23.70;56.80
67050;DHT22;53955;52.442;13.284;2023-07-31T13:09:55;23.50;60.20
67050;DHT22;53955;52.442;13.284;2023-07-31T13:12:21;23.30;60.00
67050;DHT22;53955;52.442;13.284;2023-07-31T13:14:48;23.20;60.50
67050;DHT22;53955;52.442;13.284;2023-07-31T13:17:15;23.10;60.60
67050;DHT22;53955;52.442;13.284;2023-07-31T13:19:41;23.10;61.50
67050;DHT22;53955;52.442;13.284;2023-07-31T13:22:08;23.00;62.80
67050;DHT22;53955;52.442;13.284;2023-07-31T13:24:36;23.00;62.10
67050;DHT22;53955;52.442;13.284;2023-07-31T13:27:03;23.00;62.20
67050;DHT22;53955;52.442;13.284;2023-07-31T13:29:29;23.10;61.70
67050;DHT22;53955;52.442;13.284;2023-07-31T13:31:57;23.30;61.70
67050;DHT22;53955;52.442;13.284;2023-07-31T13:34:24;23.40;61.20
67050;DHT22;53955;52.442;13.284;2023-07-31T13:36:50;23.50;60.00
67050;DHT22;53955;52.442;13.284;2023-07-31T13:39:17;23.70;57.20
67050;DHT22;53955;52.442;13.284;2023-07-31T13:41:45;23.90;58.30
67050;DHT22;53955;52.442;13.284;2023-07-31T13:44:11;23.80;55.90
67050;DHT22;53955;52.442;13.284;2023-07-31T13:46:38;23.90;56.20
67050;DHT22;53955;52.442;13.284;2023-07-31T13:49:04;23.90;56.20
67050;DHT22;53955;52.442;13.284;2023-07-31T13:51:31;23.70;56.60
67050;DHT22;53955;52.442;13.284;2023-07-31T13:53:58;23.60;55.90
67050;DHT22;53955;52.442;13.284;2023-07-31T13:56:24;23.60;58.60
67050;DHT22;53955;52.442;13.284;2023-07-31T13:58:52;23.50;59.80
67050;DHT22;53955;52.442;13.284;2023-07-31T14:01:19;23.50;60.30
67050;DHT22;53955;52.442;13.284;2023-07-31T14:03:45;23.30;60.40
67050;DHT22;53955;52.442;13.284;2023-07-31T14:06:12;23.40;60.60
67050;DHT22;53955;52.442;13.284;2023-07-31T14:08:38;23.60;60.40
67050;DHT22;53955;52.442;13.284;2023-07-31T14:11:05;23.60;59.90
67050;DHT22;53955;52.442;13.284;2023-07-31T14:13:31;23.70;58.40
67050;DHT22;53955;52.442;13.284;2023-07-31T14:15:59;23.70;56.60
67050;DHT22;53955;52.442;13.284;2023-07-31T14:18:26;23.60;56.80
67050;DHT22;53955;52.442;13.284;2023-07-31T14:20:52;23.40;59.80
67050;DHT22;53955;52.442;13.284;2023-07-31T14:23:19;23.40;60.30
67050;DHT22;53955;52.442;13.284;2023-07-31T14:25:46;23.20;59.70
67050;DHT22;53955;52.442;13.284;2023-07-31T14:28:12;23.20;60.00
67050;DHT22;53955;52.442;13.284;2023-07-31T14:30:39;23.20;58.90
67050;DHT22;53955;52.442;13.284;2023-07-31T14:33:07;23.20;58.40
67050;DHT22;53955;52.442;13.284;2023-07-31T14:35:34;23.30;58.00
67050;DHT22;53955;52.442;13.284;2023-07-31T14:38:01;23.30;57.90
67050;DHT22;53955;52.442;13.284;2023-07-31T14:40:27;23.50;58.20
67050;DHT22;53955;52.442;13.284;2023-07-31T14:42:54;23.40;57.50
67050;DHT22;53955;52.442;13.284;2023-07-31T14:45:20;23.30;58.10
67050;DHT22;53955;52.442;13.284;2023-07-31T14:47:47;23.30;57.70
67050;DHT22;53955;52.442;13.284;2023-07-31T14:50:15;23.30;57.50
67050;DHT22;53955;52.442;13.284;2023-07-31T14:52:42;23.30;57.40
67050;DHT22;53955;52.442;13.284;2023-07-31T14:55:08;23.30;57.70
67050;DHT22;53955;52.442;13.284;2023-07-31T14:57:35;23.20;58.00
67050;DHT22;53955;52.442;13.284;2023-07-31T15:00:02;23.20;57.60
67050;DHT22;53955;52.442;13.284;2023-07-31T15:02:33;23.20;57.80
67050;DHT22;53955;52.442;13.284;2023-07-31T15:04:59;23.20;57.60
67050;DHT22;53955;52.442;13.284;2023-07-31T15:07:27;23.10;58.00
67050;DHT22;53955;52.442;13.284;2023-07-31T15:09:54;23.10;58.20
67050;DHT22;53955;52.442;13.284;2023-07-31T15:12:21;23.10;58.90
67050;DHT22;53955;52.442;13.284;2023-07-31T15:14:48;23.00;59.80
67050;DHT22;53955;52.442;13.284;2023-07-31T15:17:16;23.00;59.20